Time;durP1;ratioP1;P1;durP2;ratioP2;P2;SDS_P1;SDS_P2;PMS_P1;PMS_P2;Temp;Humidity;BMP_temperature;BMP_pressure;BME280_temperature;BME280_humidity;BME280_pressure;Samples;Min_cycle;Max_cycle;Signal;HPM_P1;HPM_P2
2021/07/20 00:00:27;;;;;;;9.55;6.00;;;23.00;58.50;;;;;;4881838;29;20108;-67
2021/07/20 00:02:55;;;;;;;11.02;6.28;;;23.00;58.40;;;;;;4881714;29;20123;-67
2021/07/20 00:05:26;;;;;;;11.32;6.97;;;23.00;58.40;;;;;;4881830;29;20382;-67
2021/07/20 00:07:54;;;;;;;12.23;6.40;;;23.00;58.40;;;;;;4881739;29;20029;-67
2021/07/20 00:10:44;;;;;;;10.23;6.32;;;22.90;58.40;;;;;;4881908;29;20477;-67
2021/07/20 00:13:10;;;;;;;10.88;5.95;;;22.90;58.50;;;;;;4881655;29;20029;-67
2021/07/20 00:15:36;;;;;;;10.15;6.18;;;22.90;58.50;;;;;;4880851;29;20477;-67
2021/07/20 00:18:07;;;;;;;10.35;6.78;;;22.90;58.60;;;;;;4881593;29;20039;-67
2021/07/20 00:20:33;;;;;;;11.40;6.82;;;22.90;58.50;;;;;;4881880;29;20048;-67
2021/07/20 00:22:59;;;;;;;10.90;6.43;;;22.90;58.50;;;;;;4881375;29;20477;-67
2021/07/20 00:25:24;;;;;;;10.48;6.00;;;22.80;58.50;;;;;;4881311;29;20033;-67
2021/07/20 00:27:50;;;;;;;11.63;6.50;;;22.90;58.40;;;;;;4881420;29;20248;-67
2021/07/20 00:30:16;;;;;;;10.25;6.63;;;22.80;58.50;;;;;;4881612;29;20056;-67
2021/07/20 00:32:42;;;;;;;12.55;7.00;;;22.90;58.50;;;;;;4881264;29;20397;-67
2021/07/20 00:35:10;;;;;;;11.45;6.85;;;22.80;58.50;;;;;;4881367;29;20037;-67
2021/07/20 00:37:38;;;;;;;11.05;6.60;;;22.80;58.50;;;;;;4881415;29;20029;-67
2021/07/20 00:40:08;;;;;;;10.95;6.43;;;22.80;58.60;;;;;;4881255;29;20040;-68
2021/07/20 00:42:34;;;;;;;11.65;6.70;;;22.80;58.50;;;;;;4881307;29;20029;-67
2021/07/20 00:45:00;;;;;;;9.60;6.35;;;22.80;58.60;;;;;;4881009;29;20480;-67
2021/07/20 00:47:26;;;;;;;10.93;6.28;;;22.80;58.60;;;;;;4881070;29;20033;-67
2021/07/20 00:49:51;;;;;;;10.65;6.03;;;22.80;58.50;;;;;;4880976;29;20041;-67
2021/07/20 00:52:17;;;;;;;10.30;6.10;;;22.80;58.60;;;;;;4881647;29;20110;-67
2021/07/20 00:54:42;;;;;;;10.63;6.28;;;22.80;58.60;;;;;;4881251;29;20082;-68
2021/07/20 00:57:09;;;;;;;10.07;6.35;;;22.70;58.60;;;;;;4881567;29;20134;-69
2021/07/20 00:59:37;;;;;;;12.02;6.80;;;22.70;58.60;;;;;;4885522;29;20382;-69
2021/07/20 01:02:03;;;;;;;9.55;6.10;;;22.70;58.60;;;;;;4881839;29;20033;-69
2021/07/20 01:04:29;;;;;;;11.13;6.68;;;22.70;58.70;;;;;;4885071;29;20045;-68
2021/07/20 01:06:57;;;;;;;10.85;7.00;;;22.60;58.60;;;;;;4880663;29;20113;-69
2021/07/20 01:09:23;;;;;;;11.15;6.30;;;22.70;58.60;;;;;;4880866;29;20048;-66
2021/07/20 01:11:50;;;;;;;9.60;6.15;;;22.70;58.60;;;;;;4880974;29;20389;-68
2021/07/20 01:14:16;;;;;;;10.82;6.63;;;22.70;58.60;;;;;;4880671;29;20028;-69
2021/07/20 01:16:43;;;;;;;9.60;6.20;;;22.60;58.60;;;;;;4880975;29;20033;-68
2021/07/20 01:19:14;;;;;;;10.80;6.13;;;22.60;58.70;;;;;;4880528;29;20466;-68
2021/07/20 01:21:40;;;;;;;11.45;6.18;;;22.60;58.70;;;;;;4880832;29;20041;-68
2021/07/20 01:24:09;;;;;;;10.48;6.38;;;22.60;58.70;;;;;;4879302;29;20029;-68
2021/07/20 01:26:35;;;;;;;10.63;6.20;;;22.60;58.70;;;;;;4879955;29;20043;-69
2021/07/20 01:29:03;;;;;;;10.52;6.43;;;22.60;58.80;;;;;;4879950;29;20120;-69
2021/07/20 01:31:30;;;;;;;10.02;6.60;;;22.60;58.70;;;;;;4880345;29;20113;-69
2021/07/20 01:33:57;;;;;;;10.15;6.22;;;22.60;58.70;;;;;;4880341;29;20033;-69
2021/07/20 01:36:24;;;;;;;10.05;6.50;;;22.50;58.80;;;;;;4880365;29;20085;-68
2021/07/20 01:38:51;;;;;;;9.52;5.85;;;22.60;58.70;;;;;;4880168;29;20056;-67
2021/07/20 01:41:18;;;;;;;10.02;6.53;;;22.50;58.80;;;;;;4880275;29;20108;-68
2021/07/20 01:43:54;;;;;;;9.38;6.00;;;22.50;58.70;;;;;;4883011;29;20037;-69
2021/07/20 01:46:21;;;;;;;11.18;6.22;;;22.50;58.80;;;;;;4881405;29;20021;-69
2021/07/20 01:48:50;;;;;;;10.43;6.50;;;22.50;58.80;;;;;;4880246;29;20041;-69
2021/07/20 01:51:17;;;;;;;10.38;6.45;;;22.50;58.70;;;;;;4881164;29;20040;-68
2021/07/20 01:53:43;;;;;;;10.68;5.95;;;22.50;58.80;;;;;;4881203;29;20052;-68
2021/07/20 01:56:10;;;;;;;10.25;6.13;;;22.50;58.80;;;;;;4880224;29;20113;-69
2021/07/20 01:58:38;;;;;;;10.18;6.43;;;22.50;58.80;;;;;;4879961;29;20035;-69
2021/07/20 02:01:05;;;;;;;8.80;5.95;;;22.50;58.80;;;;;;4879962;29;20029;-69
2021/07/20 02:03:59;;;;;;;9.93;6.10;;;22.40;58.90;;;;;;4879763;29;20060;-69
2021/07/20 02:09:15;;;;;;;9.63;5.82;;;22.50;58.70;;;;;;4879679;29;20492;-69
2021/07/20 02:11:41;;;;;;;10.10;6.40;;;22.50;58.80;;;;;;4879627;29;20036;-69
2021/07/20 02:14:11;;;;;;;10.00;6.18;;;22.50;58.80;;;;;;4879625;29;20473;-68
2021/07/20 02:16:44;;;;;;;10.48;6.05;;;22.40;58.80;;;;;;4879672;29;20473;-69
2021/07/20 02:19:24;;;;;;;11.00;6.72;;;22.40;58.80;;;;;;4879623;29;20477;-69
2021/07/20 02:21:52;;;;;;;9.70;6.03;;;22.40;58.90;;;;;;4878146;29;20074;-68
2021/07/20 02:24:25;;;;;;;10.52;6.60;;;22.40;58.80;;;;;;4879875;29;20029;-69
2021/07/20 02:26:52;;;;;;;9.65;5.55;;;22.40;58.90;;;;;;4879880;29;20127;-69
2021/07/20 02:29:18;;;;;;;10.40;6.22;;;22.40;58.90;;;;;;4879792;29;20039;-69
2021/07/20 02:31:46;;;;;;;10.88;6.15;;;22.40;58.90;;;;;;4888121;29;20037;-69
2021/07/20 02:34:12;;;;;;;9.82;6.00;;;22.40;58.90;;;;;;4888397;29;20032;-69
2021/07/20 02:36:39;;;;;;;11.57;6.47;;;22.40;58.90;;;;;;4886411;29;20067;-69
2021/07/20 02:39:07;;;;;;;9.48;5.80;;;22.40;58.80;;;;;;4878986;29;20497;-69
2021/07/20 02:41:33;;;;;;;10.73;6.47;;;22.40;58.90;;;;;;4879262;29;20071;-69
2021/07/20 02:43:59;;;;;;;11.13;6.03;;;22.40;58.90;;;;;;4879262;29;20029;-69
2021/07/20 02:46:25;;;;;;;9.48;5.35;;;22.30;58.90;;;;;;4879323;29;20104;-69
2021/07/20 02:48:52;;;;;;;9.48;5.95;;;22.30;58.90;;;;;;4879187;29;20100;-69
2021/07/20 02:51:19;;;;;;;9.18;5.95;;;22.30;58.90;;;;;;4879385;29;20069;-70
2021/07/20 02:53:47;;;;;;;10.75;6.10;;;22.30;59.00;;;;;;4879361;29;20053;-69
2021/07/20 02:56:14;;;;;;;10.30;6.38;;;22.30;59.00;;;;;;4879290;29;20028;-69
2021/07/20 02:58:43;;;;;;;10.07;6.38;;;22.30;59.00;;;;;;4879198;29;20096;-69
2021/07/20 03:01:10;;;;;;;8.73;5.63;;;22.30;59.00;;;;;;4884604;29;20025;-69
2021/07/20 03:03:36;;;;;;;9.73;6.05;;;22.30;59.00;;;;;;4888522;29;20049;-69
2021/07/20 03:06:04;;;;;;;10.70;6.25;;;22.30;59.00;;;;;;4888554;29;20043;-68
2021/07/20 03:08:31;;;;;;;9.38;6.28;;;22.30;58.90;;;;;;4883734;29;20367;-70
2021/07/20 03:11:01;;;;;;;10.52;6.63;;;22.20;59.00;;;;;;4881225;29;20039;-70
2021/07/20 03:13:28;;;;;;;10.38;6.47;;;22.20;58.90;;;;;;4885767;29;20033;-70
2021/07/20 03:15:54;;;;;;;9.60;6.00;;;22.20;59.00;;;;;;4884457;29;20023;-70
2021/07/20 03:18:28;;;;;;;9.38;6.20;;;22.20;59.00;;;;;;4880667;29;20033;-69
2021/07/20 03:20:55;;;;;;;11.57;5.78;;;22.20;59.00;;;;;;4879709;29;20073;-69
2021/07/20 03:23:22;;;;;;;9.98;6.18;;;22.20;59.00;;;;;;4879677;29;20032;-69
2021/07/20 03:25:49;;;;;;;9.38;6.28;;;22.20;59.00;;;;;;4879783;29;20029;-69
2021/07/20 03:28:16;;;;;;;10.02;6.00;;;22.20;59.00;;;;;;4878949;29;20048;-69
2021/07/20 03:30:43;;;;;;;9.55;5.85;;;22.20;59.00;;;;;;4879166;29;20124;-68
2021/07/20 03:33:10;;;;;;;10.52;6.13;;;22.20;59.00;;;;;;4879187;29;20033;-69
2021/07/20 03:35:35;;;;;;;8.95;5.68;;;22.20;59.00;;;;;;4878937;29;20025;-69
2021/07/20 03:38:01;;;;;;;9.77;6.22;;;22.20;59.00;;;;;;4879084;29;20036;-69
2021/07/20 03:40:27;;;;;;;10.20;5.80;;;22.20;59.00;;;;;;4878940;29;20246;-69
2021/07/20 03:42:55;;;;;;;10.07;6.15;;;22.20;59.00;;;;;;4878814;29;20033;-69
2021/07/20 03:45:21;;;;;;;9.35;5.80;;;22.20;59.00;;;;;;4878762;29;20029;-69
2021/07/20 03:47:47;;;;;;;9.77;5.53;;;22.20;59.00;;;;;;4882283;29;20472;-69
2021/07/20 03:50:17;;;;;;;9.70;6.03;;;22.20;59.00;;;;;;4880383;29;20112;-69
2021/07/20 03:52:43;;;;;;;9.52;5.95;;;22.20;59.10;;;;;;4880978;29;20492;-69
2021/07/20 03:55:09;;;;;;;9.60;6.05;;;22.20;59.00;;;;;;4882535;29;20045;-69
2021/07/20 03:57:35;;;;;;;8.93;5.72;;;22.20;59.00;;;;;;4882454;29;20452;-69
2021/07/20 04:00:04;;;;;;;9.48;5.45;;;22.20;59.00;;;;;;4882011;29;20504;-69
2021/07/20 04:02:36;;;;;;;9.75;5.93;;;22.10;59.00;;;;;;4881777;29;20064;-69
2021/07/20 04:05:02;;;;;;;8.48;5.72;;;22.10;59.10;;;;;;4881997;29;20030;-69
2021/07/20 04:07:28;;;;;;;10.88;6.22;;;22.10;59.00;;;;;;4881978;29;20473;-70
2021/07/20 04:09:54;;;;;;;11.68;6.10;;;22.10;59.00;;;;;;4881622;29;20040;-69
2021/07/20 04:12:21;;;;;;;9.80;5.93;;;22.10;58.90;;;;;;4881713;29;20029;-68
2021/07/20 04:14:48;;;;;;;9.50;5.45;;;22.20;59.00;;;;;;4883736;29;20029;-68
2021/07/20 04:17:15;;;;;;;9.07;5.60;;;22.10;59.00;;;;;;4883740;29;20033;-68
2021/07/20 04:19:41;;;;;;;9.68;6.25;;;22.10;59.10;;;;;;4882490;29;20052;-69
2021/07/20 04:22:08;;;;;;;9.80;6.18;;;22.10;59.10;;;;;;4882981;29;20111;-69
2021/07/20 04:24:34;;;;;;;9.40;6.20;;;22.10;59.00;;;;;;4883552;29;20052;-69
2021/07/20 04:27:02;;;;;;;8.25;5.40;;;22.10;59.10;;;;;;4882176;29;20025;-68
2021/07/20 04:29:28;;;;;;;9.10;5.55;;;22.10;59.10;;;;;;4882587;29;20481;-68
2021/07/20 04:31:55;;;;;;;8.93;5.70;;;22.10;59.00;;;;;;4884022;29;20037;-68
2021/07/20 04:34:21;;;;;;;9.10;5.47;;;22.10;59.00;;;;;;4885866;29;20458;-69
2021/07/20 04:36:47;;;;;;;9.18;5.82;;;22.10;59.00;;;;;;4882169;29;20116;-69
2021/07/20 04:39:13;;;;;;;9.10;5.60;;;22.10;59.00;;;;;;4882483;29;20063;-69
2021/07/20 04:41:41;;;;;;;12.38;7.00;;;22.10;58.90;;;;;;4884779;29;20029;-69
2021/07/20 04:44:08;;;;;;;8.73;5.32;;;22.10;58.90;;;;;;4882605;29;20041;-69
2021/07/20 04:46:34;;;;;;;11.05;6.65;;;22.10;58.90;;;;;;4882410;29;20025;-69
2021/07/20 04:49:02;;;;;;;10.20;5.85;;;22.10;58.80;;;;;;4884922;29;20033;-69
2021/07/20 04:51:30;;;;;;;9.20;5.82;;;22.10;58.90;;;;;;4883978;29;20489;-69
2021/07/20 04:53:56;;;;;;;9.77;6.00;;;22.10;58.90;;;;;;4882573;29;20048;-68
2021/07/20 04:56:22;;;;;;;8.65;5.72;;;22.10;58.80;;;;;;4884002;29;20382;-69
2021/07/20 04:58:48;;;;;;;9.25;5.78;;;22.10;58.80;;;;;;4882121;29;20021;-69
2021/07/20 05:01:14;;;;;;;9.05;5.78;;;22.10;58.80;;;;;;4881367;29;20596;-69
2021/07/20 05:03:40;;;;;;;9.77;6.00;;;22.10;58.80;;;;;;4880716;29;20044;-69
2021/07/20 05:06:07;;;;;;;9.55;5.57;;;22.10;58.90;;;;;;4880833;29;20112;-69
2021/07/20 05:08:34;;;;;;;10.27;6.25;;;22.10;58.80;;;;;;4880564;29;20442;-68
2021/07/20 05:11:01;;;;;;;10.52;6.28;;;22.10;58.80;;;;;;4880710;29;20084;-69
2021/07/20 05:13:27;;;;;;;9.07;5.60;;;22.10;58.80;;;;;;4880642;29;20036;-69
2021/07/20 05:15:55;;;;;;;8.98;5.97;;;22.10;58.80;;;;;;4880793;29;20025;-69
2021/07/20 05:18:21;;;;;;;10.02;6.45;;;22.10;58.80;;;;;;4880644;29;20064;-69
2021/07/20 05:20:49;;;;;;;9.18;5.97;;;22.10;58.70;;;;;;4880558;29;20351;-68
2021/07/20 05:23:17;;;;;;;9.10;5.93;;;22.10;58.80;;;;;;4880662;29;20032;-67
2021/07/20 05:25:47;;;;;;;8.82;5.93;;;22.10;58.80;;;;;;4880471;29;20025;-67
2021/07/20 05:28:14;;;;;;;8.52;5.80;;;22.10;58.80;;;;;;4880391;29;20086;-67
2021/07/20 05:30:41;;;;;;;9.15;5.80;;;22.10;58.80;;;;;;4880523;29;20033;-68
2021/07/20 05:33:07;;;;;;;9.77;5.90;;;22.10;58.80;;;;;;4879119;29;20499;-69
2021/07/20 05:35:34;;;;;;;11.38;6.07;;;22.10;58.70;;;;;;4880322;29;20037;-68
2021/07/20 05:38:00;;;;;;;9.07;5.53;;;22.10;58.80;;;;;;4880051;29;20354;-69
2021/07/20 05:40:25;;;;;;;9.93;6.10;;;22.10;58.80;;;;;;4880329;29;20033;-68
2021/07/20 05:42:52;;;;;;;8.48;5.43;;;22.10;58.80;;;;;;4880361;29;20059;-68
2021/07/20 05:45:18;;;;;;;10.40;6.07;;;22.10;58.70;;;;;;4880204;29;20048;-68
2021/07/20 05:47:49;;;;;;;9.35;5.57;;;22.20;58.70;;;;;;4880148;29;20059;-68
2021/07/20 05:50:16;;;;;;;10.38;6.57;;;22.10;58.70;;;;;;4878760;29;20047;-68
2021/07/20 05:52:45;;;;;;;9.18;5.68;;;22.10;58.70;;;;;;4880226;29;20089;-68
2021/07/20 05:55:13;;;;;;;9.50;6.15;;;22.10;58.60;;;;;;4879859;29;20060;-67
2021/07/20 05:57:40;;;;;;;12.63;6.38;;;22.10;58.70;;;;;;4879674;29;20096;-68
2021/07/20 06:00:10;;;;;;;9.68;6.32;;;22.10;58.60;;;;;;4879825;29;20112;-68
2021/07/20 06:02:41;;;;;;;9.07;5.85;;;22.20;58.60;;;;;;4879516;29;20041;-66
2021/07/20 06:05:08;;;;;;;8.43;5.20;;;22.20;58.60;;;;;;4879592;29;20031;-68
2021/07/20 06:07:35;;;;;;;10.77;5.50;;;22.20;58.60;;;;;;4879470;29;20119;-67
2021/07/20 06:10:02;;;;;;;9.30;5.88;;;22.10;58.60;;;;;;4879553;29;20119;-67
2021/07/20 06:12:29;;;;;;;8.82;6.03;;;22.10;58.60;;;;;;4879430;29;20036;-68
2021/07/20 06:14:55;;;;;;;8.32;5.68;;;22.20;58.50;;;;;;4877945;29;20096;-68
2021/07/20 06:17:25;;;;;;;10.18;6.50;;;22.20;58.50;;;;;;4879604;29;20036;-67
2021/07/20 06:19:51;;;;;;;9.85;5.85;;;22.20;58.40;;;;;;4879552;29;20397;-67
2021/07/20 06:22:21;;;;;;;9.88;6.25;;;22.20;58.30;;;;;;4879755;29;20021;-67
2021/07/20 06:24:48;;;;;;;9.98;5.68;;;22.30;58.20;;;;;;4879768;29;20033;-68
2021/07/20 06:27:15;;;;;;;9.02;5.43;;;22.30;58.20;;;;;;4879394;29;20478;-67
2021/07/20 06:29:43;;;;;;;8.85;5.93;;;22.20;58.20;;;;;;4879268;29;20132;-67
2021/07/20 06:32:09;;;;;;;9.45;5.53;;;22.30;58.20;;;;;;4879332;29;20021;-69
2021/07/20 06:34:37;;;;;;;8.15;5.53;;;22.30;58.10;;;;;;4879394;29;20148;-67
2021/07/20 06:37:03;;;;;;;9.88;6.13;;;22.30;58.10;;;;;;4879189;29;20461;-69
2021/07/20 06:39:29;;;;;;;8.60;5.55;;;22.30;58.10;;;;;;4879164;29;20040;-68
2021/07/20 06:41:56;;;;;;;9.02;5.65;;;22.30;58.10;;;;;;4879253;29;20349;-68
2021/07/20 06:44:23;;;;;;;9.93;6.28;;;22.30;58.00;;;;;;4879142;29;20037;-67
2021/07/20 06:46:50;;;;;;;8.88;5.38;;;22.30;58.00;;;;;;4879106;29;20071;-68
2021/07/20 06:49:18;;;;;;;10.77;6.68;;;22.30;58.00;;;;;;4878972;29;20485;-68
2021/07/20 06:51:43;;;;;;;8.90;5.45;;;22.30;58.00;;;;;;4879086;29;20033;-68
2021/07/20 06:54:09;;;;;;;9.43;6.07;;;22.40;58.00;;;;;;4879045;29;20392;-68
2021/07/20 06:56:38;;;;;;;7.80;5.32;;;22.30;57.90;;;;;;4878666;29;20497;-69
2021/07/20 06:59:05;;;;;;;9.63;5.05;;;22.30;57.90;;;;;;4878932;29;20048;-68
2021/07/20 07:01:32;;;;;;;10.77;5.60;;;22.40;57.90;;;;;;4878906;29;20044;-67
2021/07/20 07:04:25;;;;;;;8.60;5.95;;;22.40;57.80;;;;;;4878800;29;20056;-67
2021/07/20 07:06:54;;;;;;;9.48;5.60;;;22.40;57.90;;;;;;4878933;29;20081;-69
2021/07/20 07:09:21;;;;;;;9.05;5.70;;;22.40;57.80;;;;;;4878696;29;20478;-68
2021/07/20 07:11:48;;;;;;;8.82;5.20;;;22.40;57.80;;;;;;4878606;29;20422;-69
2021/07/20 07:14:14;;;;;;;8.90;5.38;;;22.30;57.80;;;;;;4877843;29;20075;-67
2021/07/20 07:16:42;;;;;;;8.75;5.20;;;22.40;57.70;;;;;;4878824;29;20040;-68
2021/07/20 07:19:13;;;;;;;7.90;5.07;;;22.40;57.70;;;;;;4881387;29;20043;-68
2021/07/20 07:21:42;;;;;;;9.27;5.43;;;22.40;57.70;;;;;;4883938;29;20060;-69
2021/07/20 07:24:11;;;;;;;9.75;5.72;;;22.40;57.70;;;;;;4884132;29;20057;-69
2021/07/20 07:26:40;;;;;;;9.15;6.13;;;22.40;57.70;;;;;;4885334;29;20025;-67
2021/07/20 07:29:08;;;;;;;9.43;5.75;;;22.40;57.60;;;;;;4884089;29;20068;-69
2021/07/20 07:31:33;;;;;;;9.90;5.90;;;22.40;57.60;;;;;;4886854;29;20060;-69
2021/07/20 07:33:59;;;;;;;8.25;5.07;;;22.40;57.60;;;;;;4883452;29;20037;-69
2021/07/20 07:36:25;;;;;;;7.97;5.32;;;22.40;57.50;;;;;;4885271;29;20033;-68
2021/07/20 07:38:53;;;;;;;9.63;5.65;;;22.40;57.50;;;;;;4883350;29;20077;-68
2021/07/20 07:41:19;;;;;;;8.70;5.47;;;22.50;57.50;;;;;;4881749;29;20557;-69
2021/07/20 07:43:45;;;;;;;9.05;5.25;;;22.40;57.40;;;;;;4883142;29;20032;-69
2021/07/20 07:46:12;;;;;;;7.90;5.05;;;22.40;57.30;;;;;;4882618;29;20029;-68
2021/07/20 07:48:39;;;;;;;8.85;5.53;;;22.50;57.20;;;;;;4882192;29;20068;-69
2021/07/20 07:51:11;;;;;;;7.88;5.15;;;22.40;57.20;;;;;;4881899;29;20085;-68
2021/07/20 07:53:39;;;;;;;9.95;6.22;;;22.50;57.20;;;;;;4881743;29;20025;-68
2021/07/20 07:56:05;;;;;;;9.10;5.50;;;22.50;57.10;;;;;;4880643;29;20032;-68
2021/07/20 07:58:33;;;;;;;9.10;5.40;;;22.50;57.10;;;;;;4881693;29;20064;-68
2021/07/20 08:01:01;;;;;;;9.23;5.07;;;22.40;57.10;;;;;;4881942;29;20139;-68
2021/07/20 08:03:29;;;;;;;9.68;5.57;;;22.50;57.00;;;;;;4881314;29;20061;-67
2021/07/20 08:05:56;;;;;;;10.10;5.60;;;22.50;56.90;;;;;;4881627;29;20107;-68
2021/07/20 08:08:22;;;;;;;8.73;5.55;;;22.50;56.90;;;;;;4881646;29;20607;-68
2021/07/20 08:10:50;;;;;;;10.95;5.82;;;22.50;57.00;;;;;;4881692;29;20105;-68
2021/07/20 08:13:18;;;;;;;8.20;5.35;;;22.50;56.90;;;;;;4881921;29;20025;-68
2021/07/20 08:15:47;;;;;;;8.20;5.32;;;22.50;56.80;;;;;;4881664;29;20389;-68
2021/07/20 08:18:13;;;;;;;8.98;5.65;;;22.50;56.80;;;;;;4883835;29;20050;-67
2021/07/20 08:20:40;;;;;;;9.13;6.00;;;22.60;56.80;;;;;;4883988;29;20561;-67
2021/07/20 08:23:06;;;;;;;8.20;5.25;;;22.50;56.70;;;;;;4881455;29;20116;-68
2021/07/20 08:25:36;;;;;;;7.70;4.72;;;22.50;56.70;;;;;;4880395;29;20052;-68
2021/07/20 08:28:16;;;;;;;8.70;5.57;;;22.50;56.70;;;;;;4881269;29;20033;-68
2021/07/20 08:30:44;;;;;;;7.22;4.65;;;22.50;56.60;;;;;;4881207;29;20100;-68
2021/07/20 08:33:16;;;;;;;9.43;5.60;;;22.50;56.60;;;;;;4881158;29;20377;-67
2021/07/20 08:35:43;;;;;;;8.65;5.55;;;22.60;56.60;;;;;;4881102;29;20546;-68
2021/07/20 08:38:12;;;;;;;8.73;5.18;;;22.60;56.50;;;;;;4880916;29;20493;-68
2021/07/20 08:41:03;;;;;;;8.32;5.28;;;22.60;56.50;;;;;;4881154;29;20025;-68
2021/07/20 08:43:54;;;;;;;9.23;5.30;;;22.60;56.50;;;;;;4881291;29;20385;-68
2021/07/20 08:46:26;;;;;;;8.75;5.60;;;22.60;56.50;;;;;;4881283;29;20033;-68
2021/07/20 08:49:35;;;;;;;8.52;4.88;;;22.60;56.50;;;;;;4881327;29;20025;-69
2021/07/20 08:52:24;;;;;;;8.20;5.25;;;22.60;56.50;;;;;;4881218;29;20029;-68
2021/07/20 08:54:58;;;;;;;9.27;5.78;;;22.60;56.50;;;;;;4888580;29;20033;-68
2021/07/20 08:57:26;;;;;;;;;;;22.60;56.40;;;;;;4885606;29;20032;-69
2021/07/20 09:00:11;;;;;;;9.27;5.38;;;22.60;56.50;;;;;;4880611;29;19907;-68
2021/07/20 09:02:56;;;;;;;9.18;5.35;;;22.60;56.40;;;;;;4880405;29;20049;-68
2021/07/20 09:05:26;;;;;;;8.38;5.13;;;22.60;56.30;;;;;;4880605;29;20116;-69
2021/07/20 09:07:58;;;;;;;8.27;5.18;;;22.60;56.30;;;;;;4878977;29;20188;-69
2021/07/20 09:10:27;;;;;;;9.38;5.65;;;22.60;56.30;;;;;;4879381;29;20482;-69
2021/07/20 09:12:54;;;;;;;8.38;4.68;;;22.70;56.20;;;;;;4880321;29;20362;-69
2021/07/20 09:15:20;;;;;;;9.13;5.68;;;22.70;56.30;;;;;;4880256;29;20124;-69
2021/07/20 09:18:24;;;;;;;8.15;5.05;;;22.70;56.40;;;;;;4880327;29;20032;-70
2021/07/20 09:20:55;;;;;;;7.78;5.18;;;22.60;56.30;;;;;;4880071;29;20037;-69
2021/07/20 09:23:38;;;;;;;8.05;5.05;;;22.70;56.30;;;;;;4880073;29;20021;-68
2021/07/20 09:26:10;;;;;;;9.15;5.32;;;22.70;56.30;;;;;;4880130;29;20025;-68
2021/07/20 09:28:39;;;;;;;8.55;5.30;;;22.70;56.30;;;;;;4882286;29;20041;-69
2021/07/20 09:31:20;;;;;;;8.73;5.22;;;22.70;56.20;;;;;;4881719;29;20040;-68
2021/07/20 09:34:15;;;;;;;8.43;5.57;;;22.70;56.20;;;;;;4880163;29;20120;-69
2021/07/20 09:36:56;;;;;;;8.30;5.22;;;22.70;56.20;;;;;;4880290;29;20389;-69
2021/07/20 09:39:57;;;;;;;8.82;5.40;;;22.70;56.30;;;;;;4880607;29;20037;-68
2021/07/20 09:42:31;;;;;;;9.45;5.63;;;22.70;56.10;;;;;;4880913;29;20032;-69
2021/07/20 09:45:11;;;;;;;8.88;5.15;;;22.70;56.30;;;;;;4882809;29;20035;-69
2021/07/20 09:47:44;;;;;;;7.93;5.18;;;22.70;56.20;;;;;;4883836;29;20032;-68
2021/07/20 09:50:10;;;;;;;8.15;5.35;;;22.70;56.20;;;;;;4883612;29;20029;-68
2021/07/20 09:52:41;;;;;;;7.90;4.80;;;22.70;56.30;;;;;;4883059;29;20108;-68
2021/07/20 09:55:35;;;;;;;8.65;5.60;;;22.70;56.20;;;;;;4881451;29;20477;-68
2021/07/20 09:58:12;;;;;;;8.13;5.03;;;22.80;56.10;;;;;;4883802;29;20025;-67
2021/07/20 10:00:48;;;;;;;7.78;4.95;;;22.80;56.20;;;;;;4881790;29;20025;-68
2021/07/20 10:03:25;;;;;;;8.77;5.47;;;22.70;56.20;;;;;;4881833;29;20135;-68
2021/07/20 10:06:08;;;;;;;9.05;5.68;;;22.80;56.20;;;;;;4881645;29;20512;-68
2021/07/20 10:08:55;;;;;;;8.90;5.25;;;22.80;56.30;;;;;;4881581;29;20084;-68
2021/07/20 10:11:44;;;;;;;8.23;5.30;;;22.80;56.20;;;;;;4880451;29;20029;-68
2021/07/20 10:14:27;;;;;;;7.57;4.68;;;22.70;56.20;;;;;;4880708;29;20113;-68
2021/07/20 10:17:23;;;;;;;8.70;5.07;;;22.70;56.10;;;;;;4880247;29;20033;-68
2021/07/20 10:20:01;;;;;;;8.20;5.05;;;22.80;56.10;;;;;;4879849;29;20443;-68
2021/07/20 10:22:36;;;;;;;8.60;5.35;;;22.80;56.10;;;;;;4880012;29;20032;-68
2021/07/20 10:25:23;;;;;;;7.75;4.90;;;22.80;56.10;;;;;;4879717;29;20033;-68
2021/07/20 10:28:11;;;;;;;8.35;5.00;;;22.80;56.10;;;;;;4879588;29;20033;-68
2021/07/20 10:30:40;;;;;;;9.77;5.82;;;22.80;56.10;;;;;;4879675;29;20037;-68
2021/07/20 10:33:17;;;;;;;8.43;5.00;;;22.80;56.10;;;;;;4879542;29;20057;-68
2021/07/20 10:36:03;;;;;;;9.30;5.20;;;22.90;56.00;;;;;;4879361;29;20034;-68
2021/07/20 10:38:38;;;;;;;9.00;5.57;;;22.90;56.00;;;;;;4879096;29;20553;-68
2021/07/20 10:41:04;;;;;;;8.63;5.47;;;22.90;55.90;;;;;;4879085;29;20037;-69
2021/07/20 10:43:42;;;;;;;8.55;5.20;;;22.90;55.80;;;;;;4877761;29;20150;-68
2021/07/20 10:46:10;;;;;;;8.70;5.38;;;22.90;55.80;;;;;;4879157;29;20125;-68
2021/07/20 10:48:41;;;;;;;8.32;5.20;;;22.90;55.80;;;;;;4878721;29;20076;-68
2021/07/20 10:51:19;;;;;;;8.70;5.60;;;23.00;55.80;;;;;;4879134;29;20112;-68
2021/07/20 10:54:12;;;;;;;8.65;5.38;;;23.00;55.70;;;;;;4879112;29;20493;-68
2021/07/20 10:56:46;;;;;;;8.55;5.43;;;23.00;55.80;;;;;;4878706;29;20032;-68
2021/07/20 10:59:43;;;;;;;8.85;5.55;;;23.00;55.70;;;;;;4879369;29;20039;-68
2021/07/20 11:02:33;;;;;;;8.57;5.25;;;22.90;55.80;;;;;;4882793;29;20029;-68
2021/07/20 11:05:07;;;;;;;7.50;5.18;;;23.00;55.80;;;;;;4882919;29;20041;-67
2021/07/20 11:07:35;;;;;;;8.65;5.53;;;23.00;55.80;;;;;;4882729;29;20064;-67
2021/07/20 11:10:23;;;;;;;8.48;5.25;;;23.00;55.70;;;;;;4882563;29;20122;-68
2021/07/20 11:12:54;;;;;;;8.85;5.68;;;23.00;55.70;;;;;;4882398;29;20085;-69
2021/07/20 11:15:21;;;;;;;7.72;5.10;;;23.00;55.70;;;;;;4882664;29;20112;-68
2021/07/20 11:17:49;;;;;;;7.60;4.90;;;23.00;55.60;;;;;;4882591;29;20032;-67
2021/07/20 11:20:18;;;;;;;8.15;5.18;;;23.00;55.60;;;;;;4882369;29;20044;-68
2021/07/20 11:22:44;;;;;;;8.57;5.05;;;23.10;55.50;;;;;;4882301;29;20486;-68
2021/07/20 11:25:10;;;;;;;8.65;5.63;;;23.10;55.50;;;;;;4882479;29;20052;-68
2021/07/20 11:27:39;;;;;;;7.35;4.50;;;23.10;55.50;;;;;;4882552;29;20067;-67
2021/07/20 11:30:13;;;;;;;9.55;5.40;;;23.20;55.40;;;;;;4882282;29;20037;-69
2021/07/20 11:32:42;;;;;;;8.10;5.10;;;23.20;55.30;;;;;;4882605;29;20039;-68
2021/07/20 11:35:16;;;;;;;7.75;5.15;;;23.20;55.40;;;;;;4882643;29;20036;-68
2021/07/20 11:37:48;;;;;;;;;;;23.20;55.40;;;;;;4888740;29;20027;-68
2021/07/20 11:40:24;;;;;;;8.70;5.38;;;23.20;55.30;;;;;;4886906;29;19937;-67
2021/07/20 11:43:06;;;;;;;8.43;5.10;;;23.30;55.30;;;;;;4886875;29;20025;-67
2021/07/20 11:45:45;;;;;;;7.53;5.20;;;23.30;55.20;;;;;;4888463;29;20037;-69
2021/07/20 11:48:12;;;;;;;7.68;4.90;;;23.20;55.30;;;;;;4888524;29;20104;-68
2021/07/20 11:51:07;;;;;;;6.80;4.35;;;23.30;55.30;;;;;;4883157;29;20036;-68
2021/07/20 11:53:59;;;;;;;8.05;5.50;;;23.30;55.30;;;;;;4882879;29;20154;-68
2021/07/20 11:56:27;;;;;;;8.50;5.13;;;23.40;55.20;;;;;;4882759;29;20112;-68
2021/07/20 11:59:30;;;;;;;8.02;4.80;;;23.40;55.00;;;;;;4882148;29;20021;-67
2021/07/20 12:02:16;;;;;;;9.68;5.53;;;23.50;55.00;;;;;;4882374;29;20029;-68
2021/07/20 12:05:04;;;;;;;7.50;5.00;;;23.50;55.00;;;;;;4882607;29;20093;-68
2021/07/20 12:07:38;;;;;;;7.50;4.40;;;23.50;55.00;;;;;;4882294;29;20077;-68
2021/07/20 12:10:38;;;;;;;8.02;5.10;;;23.50;54.90;;;;;;4883754;29;20048;-68
2021/07/20 12:13:07;;;;;;;7.38;4.85;;;23.50;54.90;;;;;;4881696;29;20033;-68
2021/07/20 12:15:35;;;;;;;8.95;4.88;;;23.50;54.80;;;;;;4882330;29;20040;-67
2021/07/20 12:18:03;;;;;;;8.00;5.10;;;23.60;54.70;;;;;;4881602;29;20021;-68
2021/07/20 12:20:29;;;;;;;8.57;5.45;;;23.60;54.70;;;;;;4881289;29;20025;-68
2021/07/20 12:22:58;;;;;;;8.30;5.05;;;23.60;54.70;;;;;;4881619;29;20043;-68
2021/07/20 12:25:25;;;;;;;8.00;5.00;;;23.60;54.70;;;;;;4881700;29;20028;-68
2021/07/20 12:27:54;;;;;;;9.35;5.60;;;23.70;54.70;;;;;;4881454;29;20326;-68
2021/07/20 12:30:23;;;;;;;7.50;4.32;;;23.70;54.60;;;;;;4881327;29;20041;-68
2021/07/20 12:32:49;;;;;;;8.20;5.18;;;23.80;54.50;;;;;;4881486;29;20442;-68
2021/07/20 12:35:20;;;;;;;7.40;4.35;;;23.80;54.40;;;;;;4881628;29;20069;-68
2021/07/20 12:38:04;;;;;;;8.75;5.40;;;23.80;54.40;;;;;;4884786;29;20021;-68
2021/07/20 12:40:31;;;;;;;7.20;4.90;;;23.90;54.40;;;;;;4887850;29;20025;-68
2021/07/20 12:43:08;;;;;;;8.57;4.90;;;23.90;54.20;;;;;;4885918;29;20124;-68
2021/07/20 12:45:34;;;;;;;7.35;4.47;;;23.90;54.20;;;;;;4881716;29;20035;-68
2021/07/20 12:48:01;;;;;;;8.10;4.82;;;24.00;54.10;;;;;;4881490;29;20056;-68
2021/07/20 12:50:28;;;;;;;8.52;5.07;;;24.00;54.10;;;;;;4881117;29;20096;-69
2021/07/20 12:52:55;;;;;;;7.10;4.55;;;24.00;54.10;;;;;;4881111;29;20048;-69
2021/07/20 12:55:23;;;;;;;7.90;5.03;;;24.10;54.00;;;;;;4879550;29;20029;-71
2021/07/20 12:57:53;;;;;;;7.85;4.47;;;24.10;54.00;;;;;;4880974;29;20473;-69
2021/07/20 13:00:24;;;;;;;8.75;5.22;;;24.10;53.90;;;;;;4880869;29;20116;-69
2021/07/20 13:02:52;;;;;;;7.50;4.57;;;24.20;53.80;;;;;;4881004;29;20132;-69
2021/07/20 13:05:19;;;;;;;7.22;4.07;;;24.20;53.80;;;;;;4880884;29;20040;-69